createdAt,value
2023-01-24T00:03:00.128Z,2.82
2023-01-24T00:06:02.917Z,2.89
2023-01-24T00:09:05.873Z,2.89
2023-01-24T00:12:08.497Z,2.89
2023-01-24T00:15:11.779Z,2.89
2023-01-24T00:18:14.394Z,2.89
2023-01-24T00:21:20.347Z,2.85
2023-01-24T00:24:23.035Z,2.83
2023-01-24T00:27:25.686Z,2.81
2023-01-24T00:30:28.546Z,2.81
2023-01-24T00:33:33.564Z,2.72
2023-01-24T00:36:36.095Z,2.77
2023-01-24T00:39:39.132Z,2.64
2023-01-24T00:42:42.100Z,2.72
2023-01-24T00:45:46.387Z,2.64
2023-01-24T00:48:48.811Z,2.64
2023-01-24T00:51:51.792Z,2.58
2023-01-24T00:54:54.676Z,2.62
2023-01-24T00:57:57.823Z,2.56
2023-01-24T01:01:03.358Z,2.57
2023-01-24T01:04:06.504Z,2.56
2023-01-24T01:07:09.184Z,2.56
2023-01-24T01:10:12.943Z,2.54
2023-01-24T01:13:15.525Z,2.49
2023-01-24T01:16:20.318Z,2.43
2023-01-24T01:19:22.999Z,2.40
2023-01-24T01:22:26.116Z,2.46
2023-01-24T01:25:28.976Z,2.49
2023-01-24T01:28:32.147Z,2.41
2023-01-24T01:31:36.292Z,2.40
2023-01-24T01:34:39.027Z,2.41
2023-01-24T01:37:41.766Z,2.46
2023-01-24T01:40:45.673Z,2.44
2023-01-24T01:44:07.059Z,2.35
2023-01-24T01:47:24.475Z,2.36
2023-01-24T01:50:38.061Z,2.36
2023-01-24T01:54:03.762Z,2.22
2023-01-24T01:57:10.904Z,2.22
2023-01-24T02:00:18.462Z,2.24
2023-01-24T02:03:41.577Z,2.29
2023-01-24T02:06:57.608Z,2.18
2023-01-24T02:10:01.173Z,2.19
2023-01-24T02:13:04.099Z,2.36
2023-01-24T02:16:07.894Z,2.26
2023-01-24T02:19:21.114Z,2.26
2023-01-24T02:25:43.195Z,1.98
2023-01-24T02:28:54.988Z,1.83
2023-01-24T02:32:03.496Z,1.72
2023-01-24T02:35:06.625Z,1.60
2023-01-24T02:38:26.366Z,1.74
2023-01-24T02:41:44.001Z,1.69
2023-01-24T02:45:17.914Z,1.61
2023-01-24T02:48:20.736Z,1.66
2023-01-24T02:51:42.126Z,1.66
2023-01-24T02:54:44.563Z,1.74
2023-01-24T02:58:06.394Z,1.68
2023-01-24T03:01:11.328Z,1.69
2023-01-24T03:04:14.513Z,1.80
2023-01-24T03:07:17.384Z,1.83
2023-01-24T03:10:27.666Z,1.84
2023-01-24T03:13:49.548Z,1.83
2023-01-24T03:17:10.690Z,1.79
2023-01-24T03:20:32.725Z,1.78
2023-01-24T03:23:54.261Z,1.91
2023-01-24T03:27:15.352Z,1.93
2023-01-24T03:30:37.188Z,2.05
2023-01-24T03:33:58.768Z,2.01
2023-01-24T03:37:02.582Z,1.88
2023-01-24T03:40:13.603Z,1.88
2023-01-24T03:43:16.752Z,1.90
2023-01-24T03:46:19.777Z,1.92
2023-01-24T03:49:50.814Z,1.93
2023-01-24T03:52:54.055Z,1.91
2023-01-24T03:56:02.523Z,1.89
2023-01-24T03:59:11.154Z,1.97
2023-01-24T04:02:16.304Z,1.97
2023-01-24T04:05:19.029Z,2.03
2023-01-24T04:08:22.413Z,2.00
2023-01-24T04:11:26.049Z,1.96
2023-01-24T04:14:34.473Z,2.03
2023-01-24T04:17:45.984Z,2.03
2023-01-24T04:20:52.026Z,2.04
2023-01-24T04:23:54.975Z,2.04
2023-01-24T04:26:58.655Z,2.07
2023-01-24T04:30:08.420Z,2.07
2023-01-24T04:33:13.195Z,2.08
2023-01-24T04:36:16.508Z,2.07
2023-01-24T04:39:23.185Z,2.13
2023-01-24T04:42:52.164Z,2.12
2023-01-24T04:46:00.057Z,2.08
2023-01-24T04:49:15.828Z,2.06
2023-01-24T04:52:22.889Z,2.09
2023-01-24T04:55:33.737Z,2.08
2023-01-24T04:58:36.828Z,2.04
2023-01-24T05:01:40.709Z,1.99
2023-01-24T05:04:52.544Z,2.07
2023-01-24T05:07:55.903Z,2.11
2023-01-24T05:11:05.269Z,2.09
2023-01-24T05:14:12.384Z,2.02
2023-01-24T05:17:15.365Z,2.07
2023-01-24T05:20:18.774Z,2.07
2023-01-24T05:23:21.867Z,2.11
2023-01-24T05:26:27.162Z,2.12
2023-01-24T05:29:30.193Z,2.16
2023-01-24T05:32:35.807Z,2.18
2023-01-24T05:35:41.934Z,2.20
2023-01-24T05:38:45.691Z,2.28
2023-01-24T05:41:48.597Z,2.32
2023-01-24T05:44:53.054Z,2.36
2023-01-24T05:47:56.564Z,2.36
2023-01-24T05:51:05.714Z,2.36
2023-01-24T05:54:08.653Z,2.40
2023-01-24T05:57:29.748Z,2.39
2023-01-24T06:00:47.418Z,2.37
2023-01-24T06:04:06.872Z,2.42
2023-01-24T06:07:10.521Z,2.40
2023-01-24T06:10:14.795Z,2.40
2023-01-24T06:13:27.994Z,2.35
2023-01-24T06:16:30.894Z,2.34
2023-01-24T06:19:33.950Z,2.37
2023-01-24T06:22:51.967Z,2.39
2023-01-24T06:25:56.864Z,2.39
2023-01-24T06:28:59.645Z,2.41
2023-01-24T06:32:27.541Z,2.46
2023-01-24T06:35:37.460Z,2.55
2023-01-24T06:38:40.908Z,2.64
2023-01-24T06:41:44.206Z,2.64
2023-01-24T06:44:47.524Z,2.70
2023-01-24T06:47:50.103Z,2.82
2023-01-24T06:50:54.457Z,2.89
2023-01-24T06:53:57.165Z,2.97
2023-01-24T06:56:59.688Z,2.95
2023-01-24T07:00:04.618Z,3.00
2023-01-24T07:03:08.911Z,2.99
2023-01-24T07:06:11.628Z,3.06
2023-01-24T07:09:14.460Z,3.16
2023-01-24T07:12:17.243Z,3.17
2023-01-24T07:15:19.835Z,3.32
2023-01-24T07:18:23.012Z,3.33
2023-01-24T07:21:25.787Z,3.36
2023-01-24T07:24:30.605Z,3.43
2023-01-24T07:27:33.361Z,3.49
2023-01-24T07:30:35.953Z,3.52
2023-01-24T07:33:38.474Z,3.55
2023-01-24T07:36:43.371Z,3.61
2023-01-24T07:39:45.965Z,3.62
2023-01-24T07:42:48.524Z,3.60
2023-01-24T07:45:52.887Z,3.60
2023-01-24T07:48:55.781Z,3.66
2023-01-24T07:52:01.899Z,3.71
2023-01-24T07:55:05.554Z,3.74
2023-01-24T07:58:08.041Z,3.74
2023-01-24T08:01:16.263Z,3.76
2023-01-24T08:04:19.235Z,3.82
2023-01-24T08:07:22.910Z,3.82
2023-01-24T08:10:25.789Z,3.92
2023-01-24T08:13:28.818Z,3.99
2023-01-24T08:16:31.415Z,4.05
2023-01-24T08:19:54.851Z,4.11
2023-01-24T08:22:59.209Z,4.21
2023-01-24T08:26:03.739Z,4.34
2023-01-24T08:29:06.216Z,4.49
2023-01-24T08:32:08.676Z,4.61
2023-01-24T08:35:11.370Z,4.70
2023-01-24T08:38:14.245Z,4.86
2023-01-24T08:41:16.709Z,5.05
2023-01-24T08:44:19.256Z,5.29
2023-01-24T08:47:22.380Z,5.37
2023-01-24T08:50:25.336Z,5.75
2023-01-24T08:53:29.549Z,6.26
2023-01-24T08:56:33.802Z,7.15
2023-01-24T08:59:36.753Z,7.83
2023-01-24T09:02:39.850Z,7.82
2023-01-24T09:05:42.850Z,8.11
2023-01-24T09:08:45.544Z,7.99
2023-01-24T09:11:49.577Z,9.22
2023-01-24T09:14:52.407Z,9.85
2023-01-24T09:17:55.198Z,10.53
2023-01-24T09:21:02.580Z,10.62
2023-01-24T09:24:05.415Z,10.50
2023-01-24T09:27:08.103Z,9.71
2023-01-24T09:30:11.587Z,10.48
2023-01-24T09:33:16.654Z,9.95
2023-01-24T09:36:19.187Z,9.57
2023-01-24T09:39:23.045Z,10.12
2023-01-24T09:42:42.590Z,10.65
2023-01-24T09:46:05.921Z,10.56
2023-01-24T09:49:09.341Z,10.65
2023-01-24T09:52:21.069Z,10.74
2023-01-24T09:55:32.516Z,11.26
2023-01-24T09:58:41.128Z,12.11
2023-01-24T10:01:44.056Z,12.27
2023-01-24T10:04:48.576Z,12.19
2023-01-24T10:08:14.278Z,11.53
2023-01-24T10:11:31.249Z,11.09
2023-01-24T10:15:18.548Z,11.07
2023-01-24T10:19:04.894Z,12.15
2023-01-24T10:22:33.150Z,12.45
2023-01-24T10:26:11.081Z,12.96
2023-01-24T10:29:21.520Z,12.89
2023-01-24T10:32:32.608Z,12.73
2023-01-24T10:35:58.331Z,12.76
2023-01-24T10:39:00.818Z,12.22
2023-01-24T10:42:15.612Z,13.44
2023-01-24T10:45:36.923Z,14.00
2023-01-24T10:48:54.792Z,13.95
2023-01-24T10:52:20.147Z,13.95
2023-01-24T10:55:25.433Z,14.01
2023-01-24T10:58:39.445Z,13.93
2023-01-24T11:01:50.644Z,14.38
2023-01-24T11:05:01.436Z,13.37
2023-01-24T11:08:05.610Z,12.81
2023-01-24T11:11:41.161Z,12.75
2023-01-24T11:14:49.841Z,11.35
2023-01-24T11:17:58.757Z,11.22
2023-01-24T11:21:13.796Z,11.18
2023-01-24T11:24:16.520Z,11.12
2023-01-24T11:27:21.732Z,11.59
2023-01-24T11:30:25.631Z,10.87
2023-01-24T11:33:37.892Z,10.53
2023-01-24T11:36:56.205Z,10.31
2023-01-24T11:40:17.421Z,10.06
2023-01-24T11:43:41.165Z,9.70
2023-01-24T11:46:57.990Z,9.54
2023-01-24T11:50:53.886Z,10.65
2023-01-24T11:54:29.091Z,11.50
2023-01-24T11:57:43.879Z,11.51
2023-01-24T12:00:53.868Z,11.68
2023-01-24T12:04:02.698Z,10.94
2023-01-24T12:07:46.825Z,10.41
2023-01-24T12:11:11.941Z,11.07
2023-01-24T12:14:23.872Z,10.88
2023-01-24T12:17:37.472Z,11.08
2023-01-24T12:21:06.500Z,11.16
2023-01-24T12:24:22.720Z,10.09
2023-01-24T12:27:27.714Z,9.44
2023-01-24T12:30:37.903Z,9.19
2023-01-24T12:34:18.726Z,9.58
2023-01-24T12:37:56.669Z,10.66
2023-01-24T12:41:32.584Z,11.73
2023-01-24T12:44:43.947Z,11.83
2023-01-24T12:47:55.623Z,12.60
2023-01-24T12:51:01.431Z,12.59
2023-01-24T12:54:23.121Z,12.41
2023-01-24T12:57:38.424Z,12.51
2023-01-24T13:00:55.168Z,12.23
2023-01-24T13:04:18.768Z,13.05
2023-01-24T13:07:50.561Z,13.53
2023-01-24T13:11:21.548Z,13.13
2023-01-24T13:14:27.912Z,13.96
2023-01-24T13:17:45.732Z,13.62
2023-01-24T13:21:15.554Z,12.86
2023-01-24T13:24:33.298Z,12.55
2023-01-24T13:28:00.396Z,12.39
2023-01-24T13:31:28.541Z,12.70
2023-01-24T13:34:38.495Z,12.47
2023-01-24T13:37:41.603Z,11.66
2023-01-24T13:40:59.634Z,11.39
2023-01-24T13:44:02.741Z,11.25
2023-01-24T13:47:14.012Z,11.36
2023-01-24T13:50:19.464Z,10.92
2023-01-24T13:54:00.305Z,10.93
2023-01-24T13:57:30.911Z,10.90
2023-01-24T14:00:34.792Z,10.58
2023-01-24T14:03:38.661Z,10.43
2023-01-24T14:06:44.509Z,10.45
2023-01-24T14:09:48.157Z,10.70
2023-01-24T14:12:55.411Z,10.27
2023-01-24T14:15:58.109Z,9.76
2023-01-24T14:19:08.549Z,9.97
2023-01-24T14:22:20.650Z,9.61
2023-01-24T14:25:48.455Z,9.94
2023-01-24T14:28:56.456Z,9.46
2023-01-24T14:32:01.515Z,9.15
2023-01-24T14:35:21.555Z,9.13
2023-01-24T14:38:24.126Z,8.77
2023-01-24T14:41:26.912Z,8.54
2023-01-24T14:44:36.471Z,8.42
2023-01-24T14:47:39.809Z,8.20
2023-01-24T14:50:42.546Z,8.11
2023-01-24T14:53:50.909Z,7.76
2023-01-24T14:56:53.594Z,7.35
2023-01-24T15:00:13.130Z,6.87
2023-01-24T15:03:19.894Z,6.61
2023-01-24T15:06:23.271Z,6.45
2023-01-24T15:09:26.555Z,6.30
2023-01-24T15:12:36.729Z,6.14
2023-01-24T15:15:40.367Z,6.08
2023-01-24T15:18:46.725Z,5.89
2023-01-24T15:21:51.498Z,5.72
2023-01-24T15:24:59.196Z,5.65
2023-01-24T15:28:27.315Z,5.68
2023-01-24T15:31:31.314Z,5.43
2023-01-24T15:34:33.939Z,5.38
2023-01-24T15:37:36.623Z,5.21
2023-01-24T15:41:02.320Z,5.15
2023-01-24T15:44:08.238Z,5.06
2023-01-24T15:47:39.306Z,4.98
2023-01-24T15:51:12.365Z,4.96
2023-01-24T15:54:15.557Z,4.86
2023-01-24T15:57:24.655Z,4.78
2023-01-24T16:00:27.708Z,4.72
2023-01-24T16:03:30.847Z,4.66
2023-01-24T16:06:33.418Z,4.61
2023-01-24T16:09:36.322Z,4.57
2023-01-24T16:12:39.801Z,4.44
2023-01-24T16:15:42.329Z,4.34
2023-01-24T16:18:45.038Z,4.33
2023-01-24T16:21:47.887Z,4.24
2023-01-24T16:24:50.450Z,4.16
2023-01-24T16:27:53.693Z,4.07
2023-01-24T16:31:03.262Z,4.09
2023-01-24T16:34:05.792Z,4.02
2023-01-24T16:37:09.896Z,3.92
2023-01-24T16:40:15.862Z,3.79
2023-01-24T16:43:21.571Z,3.77
2023-01-24T16:46:24.295Z,3.71
2023-01-24T16:49:28.453Z,3.62
2023-01-24T16:52:32.554Z,3.62
2023-01-24T16:55:38.861Z,3.51
2023-01-24T16:58:41.447Z,3.47
2023-01-24T17:01:44.470Z,3.43
2023-01-24T17:04:49.980Z,3.46
2023-01-24T17:07:52.665Z,3.37
2023-01-24T17:11:06.676Z,3.35
2023-01-24T17:14:09.504Z,3.31
2023-01-24T17:17:12.144Z,3.36
2023-01-24T17:20:15.526Z,3.24
2023-01-24T17:23:17.961Z,3.22
2023-01-24T17:26:20.670Z,3.19
2023-01-24T17:29:26.818Z,3.10
2023-01-24T17:32:31.509Z,3.12
2023-01-24T17:35:34.154Z,3.08
2023-01-24T17:38:37.217Z,3.02
2023-01-24T17:41:40.185Z,2.97
2023-01-24T17:44:43.105Z,2.95
2023-01-24T17:47:45.555Z,2.94
2023-01-24T17:50:49.209Z,2.84
2023-01-24T17:53:51.919Z,2.80
2023-01-24T17:56:54.795Z,2.73
2023-01-24T17:59:57.358Z,2.69
2023-01-24T18:03:00.248Z,2.71
2023-01-24T18:06:05.282Z,2.72
2023-01-24T18:09:08.411Z,2.69
2023-01-24T18:12:11.136Z,2.59
2023-01-24T18:15:14.278Z,2.64
2023-01-24T18:18:17.572Z,2.65
2023-01-24T18:21:23.530Z,2.56
2023-01-24T18:24:26.010Z,2.54
2023-01-24T18:27:29.390Z,2.49
2023-01-24T18:30:32.051Z,2.48
2023-01-24T18:33:35.900Z,2.42
2023-01-24T18:36:39.205Z,2.44
2023-01-24T18:39:42.012Z,2.32
2023-01-24T18:42:45.400Z,2.36
2023-01-24T18:45:48.402Z,2.32
2023-01-24T18:48:52.227Z,2.28
2023-01-24T18:51:54.871Z,2.27
2023-01-24T18:54:57.599Z,2.29
2023-01-24T18:58:00.500Z,2.24
2023-01-24T19:01:20.158Z,2.21
2023-01-24T19:04:23.478Z,2.16
2023-01-24T19:07:26.444Z,2.12
2023-01-24T19:10:31.102Z,2.15
2023-01-24T19:13:34.917Z,2.08
2023-01-24T19:16:40.932Z,2.07
2023-01-24T19:19:44.164Z,1.99
2023-01-24T19:22:47.421Z,1.95
2023-01-24T19:25:50.148Z,1.97
2023-01-24T19:28:55.852Z,1.86
2023-01-24T19:31:58.926Z,1.82
2023-01-24T19:35:01.910Z,1.87
2023-01-24T19:38:04.719Z,1.73
2023-01-24T19:41:10.584Z,1.65
2023-01-24T19:44:22.324Z,1.72
2023-01-24T19:47:25.719Z,1.73
2023-01-24T19:50:31.038Z,1.67
2023-01-24T19:53:34.785Z,1.67
2023-01-24T19:56:37.853Z,1.66
2023-01-24T19:59:41.379Z,1.64
2023-01-24T20:02:47.237Z,1.63
2023-01-24T20:05:50.294Z,1.52
2023-01-24T20:08:57.001Z,1.50
2023-01-24T20:11:59.870Z,1.55
2023-01-24T20:15:02.661Z,1.50
2023-01-24T20:18:05.810Z,1.42
2023-01-24T20:21:12.997Z,1.45
2023-01-24T20:24:16.277Z,1.40
2023-01-24T20:27:18.899Z,1.39
2023-01-24T20:30:22.724Z,1.38
2023-01-24T20:33:25.927Z,1.44
2023-01-24T20:36:28.586Z,1.48
2023-01-24T20:39:31.370Z,1.46
2023-01-24T20:42:35.665Z,1.40
2023-01-24T20:45:38.818Z,1.46
2023-01-24T20:48:41.661Z,1.46
2023-01-24T20:51:44.496Z,1.44
2023-01-24T20:54:47.663Z,1.46
2023-01-24T20:57:50.263Z,1.44
2023-01-24T21:00:54.244Z,1.40
2023-01-24T21:04:09.104Z,1.37
2023-01-24T21:07:12.062Z,1.35
2023-01-24T21:10:15.889Z,1.30
2023-01-24T21:13:19.629Z,1.29
2023-01-24T21:16:23.540Z,1.29
2023-01-24T21:19:27.264Z,1.31
2023-01-24T21:22:29.900Z,1.27
2023-01-24T21:25:35.001Z,1.22
2023-01-24T21:28:38.312Z,1.14
2023-01-24T21:31:41.390Z,1.17
2023-01-24T21:34:43.826Z,1.14
2023-01-24T21:37:46.921Z,1.21
2023-01-24T21:41:09.902Z,1.17
2023-01-24T21:44:12.480Z,1.08
2023-01-24T21:47:17.423Z,1.08
2023-01-24T21:50:20.448Z,1.10
2023-01-24T21:53:43.381Z,1.14
2023-01-24T21:57:28.172Z,1.11
2023-01-24T22:00:32.582Z,1.18
2023-01-24T22:03:35.334Z,1.08
2023-01-24T22:06:38.011Z,1.07
2023-01-24T22:09:41.415Z,0.99
2023-01-24T22:12:44.006Z,0.93
2023-01-24T22:15:46.686Z,0.87
2023-01-24T22:18:49.820Z,0.82
2023-01-24T22:21:52.735Z,0.81
2023-01-24T22:25:27.073Z,0.66
2023-01-24T22:28:32.974Z,0.71
2023-01-24T22:31:35.733Z,0.72
2023-01-24T22:34:39.169Z,0.75
2023-01-24T22:37:43.861Z,0.74
2023-01-24T22:40:47.029Z,0.81
2023-01-24T22:43:49.989Z,0.77
2023-01-24T22:46:52.745Z,0.81
2023-01-24T22:49:55.368Z,0.84
2023-01-24T22:52:58.157Z,0.84
2023-01-24T22:56:03.617Z,0.76
2023-01-24T22:59:06.669Z,0.73
2023-01-24T23:02:09.668Z,0.73
2023-01-24T23:05:13.057Z,0.70
2023-01-24T23:08:16.899Z,0.65
2023-01-24T23:11:21.127Z,0.69
2023-01-24T23:14:42.331Z,0.67
2023-01-24T23:17:47.839Z,0.64
2023-01-24T23:21:12.969Z,0.57
2023-01-24T23:24:15.947Z,0.57
2023-01-24T23:27:21.069Z,0.55
2023-01-24T23:30:37.862Z,0.50
2023-01-24T23:33:44.303Z,0.53
2023-01-24T23:36:49.825Z,0.54
2023-01-24T23:39:52.789Z,0.51
2023-01-24T23:42:55.784Z,0.46
2023-01-24T23:45:58.360Z,0.50
2023-01-24T23:49:01.167Z,0.41
2023-01-24T23:52:04.979Z,0.42
2023-01-24T23:55:08.634Z,0.38
2023-01-24T23:58:11.451Z,0.30
